Stevens Pass
Grace Lakes & Old Faithful
Latest observation 08/31 21:00 PDT
| Time (PDT) | Temp °F 4790' | RH % 4790' | Min mph 4590' | Spd mph 4590' | Gust mph 4590' | Dir ° 4590' | SnoHt in 4790' | I/S_Sno in 4790' |
|---|---|---|---|---|---|---|---|---|
| 08/31 21:00 | 59 | 48 | 0 | 3 | 7 | 181 | 6.2 | 58.5 |
| 08/31 20:00 | 58 | 52 | 4 | 9 | 14 | 163 | 6.3 | 61.1 |
| 08/31 19:00 | 61 | 47 | 4 | 10 | 16 | 167 | 6.1 | 61.3 |
| 08/31 18:00 | 62 | 45 | 6 | 10 | 14 | 151 | 6.0 | 62.2 |
| 08/31 17:00 | 64 | 43 | 6 | 10 | 15 | 138 | 6.1 | 63.3 |
| 08/31 16:00 | 66 | 42 | 6 | 10 | 19 | 145 | 6.0 | 60.0 |
| 08/31 15:00 | 65 | 43 | 6 | 10 | 15 | 146 | 6.1 | 61.0 |
| 08/31 14:00 | 64 | 46 | 5 | 10 | 15 | 140 | 5.8 | 60.8 |
| 08/31 13:00 | 62 | 51 | 6 | 10 | 15 | 140 | 6.0 | 61.3 |
| 08/31 12:00 | 60 | 55 | 5 | 10 | 16 | 147 | 6.0 | 63.0 |
| 08/31 11:00 | 59 | 55 | 5 | 11 | 17 | 161 | 6.2 | 60.3 |
| 08/31 10:00 | 55 | 64 | 6 | 11 | 17 | 162 | 6.4 | 38.7 |
| 08/31 09:00 | 52 | 72 | 5 | 10 | 14 | 161 | 7.0 | -19.1 |
| 08/31 08:00 | 50 | 76 | 7 | 11 | 15 | 168 | 7.0 | -56.9 |
| 08/31 07:00 | 47 | 81 | 6 | 11 | 15 | 170 | 6.9 | -83.7 |
| 08/31 06:00 | 48 | 79 | 3 | 9 | 16 | 174 | 7.2 | -74.2 |
| 08/31 05:00 | 48 | 79 | 4 | 8 | 13 | 176 | 7.3 | -87.6 |
| 08/31 04:00 | 48 | 78 | 3 | 7 | 14 | 174 | 7.1 | -98.6 |
| 08/31 03:00 | 48 | 77 | 0 | 1 | 6 | 210 | 7.2 | -81.6 |
| 08/31 02:00 | 47 | 82 | 0 | 1 | 4 | 272 | 6.9 | -131.2 |
| 08/31 01:00 | 44 | 93 | 0 | 1 | 3 | 255 | 7.3 | -140.2 |
| 08/31 00:00 | 43 | 95 | 0 | 1 | 4 | 273 | 7.2 | -134.6 |
| 08/30 23:00 | 44 | 93 | 0 | 0 | 3 | 284 | 7.1 | -139.4 |
| 08/30 22:00 | 45 | 92 | 0 | 1 | 5 | 277 | 7.2 | -137.2 |
| 08/30 21:00 | 45 | 91 | 0 | 1 | 4 | 294 | 6.9 | -135.3 |
| 08/30 20:00 | 45 | 91 | 0 | 0 | 5 | 216 | 7.1 | -129.5 |
| 08/30 19:00 | 46 | 89 | 0 | 1 | 6 | 232 | 6.7 | -110.5 |
| 08/30 18:00 | 47 | 85 | 0 | 1 | 5 | 147 | 6.8 | -72.0 |
| 08/30 17:00 | 47 | 82 | 0 | 1 | 9 | 140 | 6.5 | -21.5 |
| 08/30 16:00 | 48 | 82 | 0 | 1 | 5 | 88 | 6.6 | -15.0 |
| 08/30 15:00 | 48 | 78 | 0 | 1 | 5 | 244 | 6.4 | 15.6 |
| 08/30 14:00 | 47 | 80 | 0 | 1 | 6 | 215 | 6.4 | -7.4 |
| 08/30 13:00 | 46 | 83 | 0 | 1 | 5 | 211 | 6.7 | -37.9 |
| 08/30 12:00 | 45 | 88 | 0 | 1 | 6 | 216 | 7.0 | -72.3 |
| 08/30 11:00 | 43 | 92 | 0 | 1 | 7 | 239 | 7.1 | -135.2 |
| 08/30 10:00 | 42 | 94 | 0 | 1 | 6 | 232 | 7.0 | -139.3 |
| 08/30 09:00 | 41 | 96 | 0 | 1 | 4 | 235 | 6.9 | -141.6 |
| 08/30 08:00 | 41 | 99 | 0 | 1 | 6 | 303 | 7.1 | -142.8 |
| 08/30 07:00 | 41 | 98 | 0 | 2 | 6 | 291 | 6.8 | -127.5 |
| 08/30 06:00 | 41 | 9 | 0 | 3 | 10 | 302 | 7.1 | -102.7 |
| 08/30 05:00 | 41 | 37 | 0 | 2 | 6 | 280 | 6.9 | -112.3 |
| 08/30 04:00 | 41 | 98 | 0 | 1 | 6 | 296 | 6.9 | -140.9 |
| 08/30 03:00 | 41 | 95 | 0 | 2 | 8 | 330 | 7.0 | -141.8 |
| 08/30 02:00 | 41 | 96 | 0 | 1 | 7 | 305 | 7.0 | -139.8 |
| 08/30 01:00 | 41 | 95 | 0 | 2 | 10 | 311 | 7.2 | -140.5 |
| 08/30 00:00 | 41 | 95 | 0 | 3 | 11 | 302 | 7.0 | -138.9 |
| 08/29 23:00 | 41 | 96 | 0 | 2 | 9 | 289 | 7.1 | -139.9 |
| 08/29 22:00 | 41 | 95 | 0 | 2 | 7 | 310 | 6.8 | -142.9 |
| 08/29 21:00 | 41 | 94 | 0 | 3 | 10 | 310 | 7.1 | -140.4 |
| 08/29 20:00 | 41 | 95 | 0 | 1 | 7 | 247 | 7.0 | -135.6 |
| 08/29 19:00 | 42 | 95 | 0 | 2 | 10 | 315 | 6.9 | -130.9 |
| 08/29 18:00 | 42 | 94 | 0 | 3 | 14 | 293 | 6.7 | -134.5 |
| 08/29 17:00 | 42 | 94 | 0 | 4 | 16 | 294 | 6.8 | -133.7 |
| 08/29 16:00 | 42 | 96 | 0 | 4 | 12 | 302 | 6.8 | -135.4 |
| 08/29 15:00 | 42 | 96 | 0 | 3 | 13 | 299 | 7.0 | -137.7 |
| 08/29 14:00 | 41 | 58 | 0 | 4 | 11 | 282 | 7.0 | -131.4 |
| 08/29 13:00 | 42 | 98 | 0 | 3 | 14 | 271 | 7.0 | -129.2 |
| 08/29 12:00 | 42 | 17 | 0 | 3 | 12 | 261 | 7.0 | -118.8 |
| 08/29 11:00 | 41 | 28 | 0 | 3 | 11 | 276 | 6.9 | -112.6 |
| 08/29 10:00 | 40 | 53 | 0 | 3 | 12 | 268 | 6.9 | -117.1 |
| 08/29 09:00 | 41 | 9 | 0 | 3 | 9 | 272 | 7.0 | -134.6 |
| 08/29 08:00 | 41 | 34 | 0 | 2 | 12 | 265 | 6.8 | -155.0 |
| 08/29 07:00 | 41 | 100 | 0 | 2 | 8 | 294 | 6.9 | -155.1 |
| 08/29 06:00 | 41 | 97 | 0 | 3 | 9 | 299 | 6.7 | -154.6 |
| 08/29 05:00 | 42 | 96 | 0 | 2 | 9 | 302 | 6.8 | -153.4 |
| 08/29 04:00 | 42 | 96 | 0 | 3 | 11 | 303 | 6.6 | -154.2 |
| 08/29 03:00 | 44 | 96 | 0 | 3 | 9 | 313 | 6.8 | -152.8 |
| 08/29 02:00 | 45 | 94 | 0 | 1 | 6 | 311 | 6.5 | -140.0 |
| 08/29 01:00 | 45 | 93 | 0 | 1 | 6 | 308 | 6.7 | -123.5 |
| 08/29 00:00 | 45 | 90 | 0 | 1 | 8 | 310 | 6.5 | -112.5 |
| 08/28 23:00 | 45 | 94 | 0 | 1 | 7 | 268 | 6.6 | -129.8 |
| 08/28 22:00 | 45 | 93 | 0 | 1 | 8 | 257 | 6.5 | -120.7 |
| 08/28 21:00 | 46 | 90 | 0 | 1 | 6 | 264 | 6.5 | -98.2 |
| 08/28 20:00 | 47 | 88 | 0 | 1 | 5 | 86 | 6.8 | 3.5 |
| 08/28 19:00 | 50 | 81 | 0 | 1 | 7 | 91 | 6.7 | 46.1 |
| 08/28 18:00 | 53 | 71 | 0 | 2 | 7 | 54 | 6.4 | 57.5 |
| 08/28 17:00 | 56 | 61 | 0 | 3 | 9 | 341 | 6.3 | 59.8 |
| 08/28 16:00 | 61 | 52 | 0 | 3 | 10 | 335 | 6.2 | 57.5 |
| 08/28 15:00 | 60 | 54 | 0 | 4 | 12 | 354 | 6.2 | 56.5 |
| 08/28 14:00 | 58 | 56 | 0 | 3 | 10 | 339 | 5.9 | 56.3 |
| 08/28 13:00 | 55 | 64 | 0 | 2 | 10 | 306 | 6.0 | 60.3 |
| 08/28 12:00 | 55 | 65 | 0 | 3 | 8 | 294 | 6.0 | 56.5 |
| 08/28 11:00 | 52 | 77 | 0 | 1 | 5 | 322 | 6.2 | 21.8 |
| 08/28 10:00 | 50 | 87 | 0 | 1 | 5 | 2 | 6.5 | -49.8 |
| 08/28 09:00 | 47 | 92 | 0 | 1 | 4 | 359 | 6.6 | -99.2 |
| 08/28 08:00 | 45 | 93 | 0 | 1 | 4 | 315 | 6.8 | -113.8 |
| 08/28 07:00 | 45 | 94 | 0 | 0 | 6 | 297 | 6.8 | -117.8 |
| 08/28 06:00 | 45 | 94 | 0 | 0 | 3 | 260 | 6.5 | -125.4 |
| 08/28 05:00 | 45 | 95 | 0 | 0 | 3 | 276 | 6.9 | -131.9 |
| 08/28 04:00 | 45 | 93 | 0 | 0 | 3 | 238 | 6.8 | -117.4 |
| 08/28 03:00 | 45 | 93 | 0 | 1 | 6 | 302 | 6.8 | -128.6 |
| 08/28 02:00 | 46 | 91 | 0 | 1 | 5 | 297 | 6.8 | -98.8 |
| 08/28 01:00 | 47 | 92 | 0 | 1 | 7 | 289 | 6.8 | -79.7 |
| 08/28 00:00 | 48 | 90 | 0 | 1 | 6 | 257 | 6.7 | -32.3 |
| 08/27 23:00 | 48 | 88 | 0 | 1 | 6 | 264 | 6.7 | 3.8 |
| 08/27 22:00 | 49 | 85 | 0 | 1 | 7 | 303 | 6.8 | 14.2 |
| 08/27 21:00 | 49 | 83 | 0 | 4 | 11 | 298 | 6.6 | 19.9 |
| 08/27 20:00 | 49 | 82 | 0 | 3 | 11 | 296 | 6.7 | 32.3 |
| 08/27 19:00 | 51 | 77 | 0 | 4 | 14 | 305 | 6.7 | 43.1 |
| 08/27 18:00 | 52 | 72 | 0 | 3 | 13 | 313 | 6.2 | 50.9 |
| 08/27 17:00 | 54 | 70 | 0 | 3 | 11 | 317 | 6.2 | 56.6 |
| 08/27 16:00 | 54 | 70 | 0 | 4 | 14 | 313 | 6.2 | 58.3 |
| 08/27 15:00 | 55 | 66 | 0 | 4 | 14 | 313 | 6.2 | 59.2 |
| 08/27 14:00 | 57 | 60 | 0 | 3 | 14 | 356 | 6.1 | 58.9 |
| 08/27 13:00 | 58 | 53 | 0 | 4 | 13 | 326 | 6.1 | 58.3 |
| 08/27 12:00 | 55 | 56 | 0 | 3 | 10 | 317 | 6.1 | 55.9 |
| 08/27 11:00 | 53 | 66 | 0 | 3 | 12 | 310 | 6.3 | 46.4 |
| 08/27 10:00 | 52 | 74 | 0 | 2 | 8 | 312 | 6.3 | 38.4 |
| 08/27 09:00 | 52 | 75 | 0 | 3 | 12 | 321 | 6.4 | 26.4 |
| 08/27 08:00 | 49 | 85 | 0 | 2 | 9 | 332 | 6.4 | 12.1 |
| 08/27 07:00 | 50 | 83 | 0 | 1 | 6 | 301 | 6.6 | 10.7 |
| 08/27 06:00 | 50 | 81 | 0 | 2 | 7 | 296 | 6.8 | 12.8 |
| 08/27 05:00 | 51 | 79 | 0 | 1 | 6 | 279 | 6.8 | 10.2 |
| 08/27 04:00 | 50 | 81 | 0 | 1 | 5 | 294 | 6.9 | 12.1 |
| 08/27 03:00 | 51 | 78 | 0 | 1 | 4 | 335 | 7.0 | 13.5 |
| 08/27 02:00 | 52 | 74 | 0 | 1 | 3 | 195 | 6.8 | 15.0 |
| 08/27 01:00 | 51 | 78 | 0 | 1 | 4 | 280 | 6.6 | 19.6 |
| 08/27 00:00 | 51 | 76 | 0 | 1 | 4 | 270 | 6.7 | 26.9 |
| 08/26 23:00 | 53 | 71 | 0 | 1 | 5 | 260 | 6.6 | 33.3 |
| 08/26 22:00 | 53 | 70 | 0 | 1 | 5 | 273 | 6.8 | 40.9 |
| 08/26 21:00 | 55 | 66 | 0 | 0 | 3 | 247 | 6.5 | 48.7 |
| 08/26 20:00 | 57 | 58 | 0 | 2 | 8 | 281 | 6.6 | 52.3 |
| 08/26 19:00 | 61 | 50 | 0 | 2 | 11 | 319 | 6.4 | 56.8 |
| 08/26 18:00 | 64 | 43 | 0 | 3 | 11 | 320 | 6.6 | 56.5 |
| 08/26 17:00 | 66 | 36 | 0 | 3 | 12 | 316 | 6.0 | 57.7 |
| 08/26 16:00 | 67 | 37 | 0 | 4 | 12 | 308 | 6.0 | 58.6 |
| 08/26 15:00 | 68 | 41 | 0 | 5 | 13 | 300 | 6.1 | 59.2 |
| 08/26 14:00 | 67 | 55 | 0 | 2 | 8 | 284 | 5.8 | 61.5 |
| 08/26 13:00 | 66 | 57 | 0 | 2 | 8 | 246 | 6.2 | 62.4 |
| 08/26 12:00 | 65 | 54 | 0 | 2 | 5 | 286 | 6.2 | 63.2 |
| 08/26 11:00 | 65 | 56 | 0 | 1 | 4 | 309 | 6.3 | 63.8 |
| 08/26 10:00 | 63 | 59 | 0 | 1 | 4 | 13 | 6.6 | 56.6 |
| 08/26 09:00 | 60 | 60 | 0 | 1 | 4 | 281 | 6.6 | 57.4 |
| 08/26 08:00 | 59 | 57 | 0 | 1 | 4 | 270 | 6.6 | 53.5 |
| 08/26 07:00 | 60 | 49 | 0 | 1 | 3 | 253 | 6.5 | 53.5 |
| 08/26 06:00 | 59 | 49 | 0 | 1 | 5 | 273 | 6.4 | 53.9 |
| 08/26 05:00 | 60 | 45 | 0 | 1 | 4 | 288 | 6.6 | 53.5 |
| 08/26 04:00 | 61 | 42 | 0 | 0 | 2 | 270 | 6.6 | 54.3 |
| 08/26 03:00 | 59 | 52 | 0 | 1 | 3 | 286 | 6.5 | 52.5 |
| 08/26 02:00 | 59 | 60 | 0 | 1 | 4 | 250 | 6.6 | 50.8 |
| 08/26 01:00 | 57 | 70 | 0 | 1 | 3 | 266 | 6.7 | 51.1 |
| 08/26 00:00 | 58 | 67 | 0 | 1 | 4 | 265 | 6.7 | 52.6 |
| 08/25 23:00 | 60 | 62 | 0 | 1 | 5 | 262 | 6.4 | 56.0 |
| 08/25 22:00 | 60 | 65 | 0 | 1 | 4 | 270 | 6.5 | 57.1 |
| 08/25 21:00 | 60 | 66 | 0 | 1 | 6 | 264 | 6.4 | 60.8 |
| 08/25 20:00 | 62 | 63 | 0 | 2 | 7 | 243 | 6.3 | 62.5 |
| 08/25 19:00 | 66 | 57 | 0 | 1 | 7 | 289 | 6.3 | 64.0 |
| 08/25 18:00 | 68 | 53 | 0 | 1 | 4 | 86 | 6.2 | 63.9 |
| 08/25 17:00 | 72 | 40 | 0 | 2 | 9 | 159 | 6.1 | 60.7 |
| 08/25 16:00 | 77 | 26 | 4 | 8 | 15 | 145 | 5.9 | 59.0 |
| 08/25 15:00 | 76 | 28 | 4 | 9 | 17 | 151 | 6.2 | 58.2 |
| 08/25 14:00 | 77 | 28 | 4 | 8 | 13 | 140 | 6.1 | 58.2 |
| 08/25 13:00 | 76 | 29 | 3 | 8 | 16 | 147 | 5.9 | 59.4 |
| 08/25 12:00 | 73 | 32 | 5 | 10 | 18 | 153 | 6.2 | 60.0 |
| 08/25 11:00 | 71 | 34 | 5 | 10 | 17 | 161 | 6.0 | 60.6 |
| 08/25 10:00 | 70 | 34 | 4 | 8 | 13 | 157 | 6.2 | 56.7 |
| 08/25 09:00 | 67 | 38 | 5 | 9 | 15 | 161 | 6.6 | 57.5 |
| 08/25 08:00 | 63 | 42 | 6 | 9 | 13 | 170 | 6.6 | 56.0 |
| 08/25 07:00 | 60 | 44 | 3 | 9 | 13 | 170 | 6.4 | 55.5 |
| 08/25 06:00 | 60 | 42 | 4 | 8 | 12 | 174 | 6.5 | 57.6 |
| 08/25 05:00 | 60 | 42 | 2 | 4 | 7 | 185 | 6.2 | 52.8 |
| 08/25 04:00 | 60 | 43 | 2 | 4 | 7 | 184 | 6.4 | 56.5 |
| 08/25 03:00 | 62 | 40 | 0 | 4 | 8 | 183 | 6.4 | 57.6 |
| 08/25 02:00 | 62 | 40 | 1 | 3 | 6 | 185 | 6.6 | 55.8 |
| 08/25 01:00 | 62 | 40 | 0 | 2 | 5 | 193 | 6.7 | 56.6 |
| 08/25 00:00 | 63 | 40 | 0 | 2 | 5 | 198 | 6.6 | 55.8 |
| 08/24 23:00 | 63 | 41 | 0 | 3 | 6 | 180 | 6.6 | 58.5 |
| 08/24 22:00 | 63 | 41 | 0 | 3 | 8 | 181 | 6.6 | 58.9 |

